Time;durP1;ratioP1;P1;durP2;ratioP2;P2;SDS_P1;SDS_P2;PMS_P1;PMS_P2;Temp;Humidity;BMP_temperature;BMP_pressure;BME280_temperature;BME280_humidity;BME280_pressure;Samples;Min_cycle;Max_cycle;Signal;HPM_P1;HPM_P2
2023/04/26 00:01:17;;;;;;;0.30;0.30;;;4.00;99.90;;;;;;5033886;28;20639;-82
2023/04/26 00:03:42;;;;;;;0.30;0.30;;;4.00;99.90;;;;;;5034358;28;20199;-83
2023/04/26 00:06:08;;;;;;;0.30;0.30;;;4.10;99.90;;;;;;5042137;28;20195;-82
2023/04/26 00:08:35;;;;;;;0.30;0.30;;;4.00;99.90;;;;;;5029717;28;20636;-81
2023/04/26 00:11:00;;;;;;;0.27;0.27;;;4.00;99.90;;;;;;5031529;28;20446;-82
2023/04/26 00:13:26;;;;;;;0.20;0.20;;;4.00;99.90;;;;;;5036861;28;20444;-82
2023/04/26 00:15:52;;;;;;;0.27;0.27;;;4.00;99.90;;;;;;5034826;28;20215;-83
2023/04/26 00:18:17;;;;;;;0.30;0.30;;;4.10;99.90;;;;;;5048218;28;20215;-82
2023/04/26 00:20:43;;;;;;;0.30;0.30;;;4.10;99.90;;;;;;5049186;28;20183;-83
2023/04/26 00:23:09;;;;;;;0.30;0.30;;;4.00;99.90;;;;;;5037715;28;20195;-82
2023/04/26 00:25:36;;;;;;;0.30;0.30;;;4.10;99.90;;;;;;5033956;28;20179;-82
2023/04/26 00:28:01;;;;;;;0.30;0.30;;;4.00;99.90;;;;;;5045678;28;20468;-82
2023/04/26 00:30:27;;;;;;;0.23;0.23;;;4.00;99.90;;;;;;5035216;28;20446;-82
2023/04/26 00:32:53;;;;;;;0.30;0.30;;;4.00;99.90;;;;;;5048264;28;20425;-82
2023/04/26 00:35:19;;;;;;;0.30;0.30;;;4.00;99.90;;;;;;5040210;28;20246;-81
2023/04/26 00:37:45;;;;;;;0.30;0.30;;;4.00;99.90;;;;;;5044709;28;20600;-82
2023/04/26 00:40:11;;;;;;;0.20;0.20;;;4.00;99.90;;;;;;5051720;28;20428;-81
2023/04/26 00:42:37;;;;;;;0.23;0.23;;;3.90;99.90;;;;;;5046331;28;20242;-81
2023/04/26 00:45:04;;;;;;;0.20;0.20;;;3.80;99.90;;;;;;5042618;28;20488;-81
2023/04/26 00:47:29;;;;;;;0.30;0.30;;;4.00;99.90;;;;;;5046959;28;20482;-82
2023/04/26 00:49:55;;;;;;;0.30;0.30;;;3.90;99.90;;;;;;5035263;28;20809;-82
2023/04/26 00:52:21;;;;;;;0.30;0.30;;;3.90;99.90;;;;;;5043095;28;20190;-82
2023/04/26 00:54:48;;;;;;;0.30;0.30;;;3.90;99.90;;;;;;5030836;28;20215;-82
2023/04/26 00:57:13;;;;;;;0.30;0.30;;;3.90;99.90;;;;;;5037510;28;20472;-82
2023/04/26 00:59:40;;;;;;;0.30;0.30;;;3.90;99.90;;;;;;5045393;28;20476;-82
2023/04/26 01:02:05;;;;;;;0.37;0.37;;;3.80;99.90;;;;;;5040712;28;20183;-82
2023/04/26 01:04:32;;;;;;;0.30;0.30;;;3.80;99.90;;;;;;5033838;28;20446;-83
2023/04/26 01:07:00;;;;;;;0.33;0.33;;;3.70;99.90;;;;;;5040053;28;20198;-82
2023/04/26 01:09:25;;;;;;;0.30;0.30;;;3.70;99.90;;;;;;5046777;28;20441;-82
2023/04/26 01:11:52;;;;;;;0.30;0.30;;;3.70;99.90;;;;;;5044285;28;20797;-82
2023/04/26 01:14:17;;;;;;;0.27;0.27;;;3.80;99.90;;;;;;5039049;28;20193;-82
2023/04/26 01:16:45;;;;;;;0.30;0.30;;;3.90;99.90;;;;;;5033593;28;20470;-82
2023/04/26 01:19:11;;;;;;;0.27;0.27;;;3.80;99.90;;;;;;5033377;28;20630;-83
2023/04/26 01:21:38;;;;;;;0.40;0.40;;;3.80;99.90;;;;;;5038386;28;20825;-82
2023/04/26 01:24:04;;;;;;;0.30;0.30;;;3.80;99.90;;;;;;5042189;28;21209;-83
2023/04/26 01:26:31;;;;;;;0.30;0.30;;;3.80;99.90;;;;;;5034946;28;20949;-82
2023/04/26 01:28:57;;;;;;;0.30;0.30;;;3.70;99.90;;;;;;5028704;28;20958;-82
2023/04/26 01:31:22;;;;;;;0.27;0.27;;;3.80;99.90;;;;;;5033643;28;20452;-83
2023/04/26 01:33:48;;;;;;;0.20;0.20;;;3.70;99.90;;;;;;5032998;28;20541;-82
2023/04/26 01:36:14;;;;;;;0.30;0.30;;;3.70;99.90;;;;;;5036571;28;20265;-83
2023/04/26 01:38:39;;;;;;;0.20;0.20;;;3.80;99.90;;;;;;5033658;28;20214;-82
2023/04/26 01:41:05;;;;;;;0.37;0.37;;;3.80;99.90;;;;;;5036648;28;20196;-82
2023/04/26 01:43:30;;;;;;;0.33;0.33;;;3.80;99.90;;;;;;5036977;28;20187;-82
2023/04/26 01:45:56;;;;;;;0.30;0.30;;;3.80;99.90;;;;;;5033721;28;20198;-82
2023/04/26 01:48:21;;;;;;;0.37;0.37;;;3.70;99.90;;;;;;5052445;28;20180;-82
2023/04/26 01:50:47;;;;;;;0.30;0.30;;;3.70;99.90;;;;;;5048502;28;20690;-82
2023/04/26 01:53:12;;;;;;;0.40;0.40;;;3.60;99.90;;;;;;5046128;28;20194;-82
2023/04/26 01:55:38;;;;;;;0.30;0.30;;;3.70;99.90;;;;;;5029816;28;20246;-82
2023/04/26 01:58:03;;;;;;;0.30;0.30;;;3.70;99.90;;;;;;5028672;28;20180;-82
2023/04/26 02:00:29;;;;;;;0.30;0.30;;;3.70;99.90;;;;;;5031720;28;20193;-82
2023/04/26 02:02:55;;;;;;;0.40;0.40;;;3.70;99.90;;;;;;5031661;28;20179;-83
2023/04/26 02:05:21;;;;;;;0.30;0.30;;;3.70;99.90;;;;;;5037896;28;20186;-82
2023/04/26 02:07:47;;;;;;;0.30;0.30;;;3.60;99.90;;;;;;5038530;28;20436;-83
2023/04/26 02:10:12;;;;;;;0.37;0.37;;;3.70;99.90;;;;;;5034493;28;20445;-82
2023/04/26 02:12:38;;;;;;;0.33;0.33;;;3.50;99.90;;;;;;5031722;28;20184;-82
2023/04/26 02:15:05;;;;;;;0.30;0.30;;;3.70;99.90;;;;;;5027944;28;20219;-82
2023/04/26 02:17:30;;;;;;;0.30;0.30;;;3.60;99.90;;;;;;5043373;28;20233;-82
2023/04/26 02:19:56;;;;;;;0.30;0.30;;;3.60;99.90;;;;;;5044944;28;20957;-82
2023/04/26 02:22:24;;;;;;;0.40;0.40;;;3.50;99.90;;;;;;5042344;28;20189;-82
2023/04/26 02:24:51;;;;;;;0.30;0.30;;;3.60;99.90;;;;;;5034383;28;20191;-82
2023/04/26 02:27:16;;;;;;;0.30;0.30;;;3.60;99.90;;;;;;5035478;28;20528;-82
2023/04/26 02:29:42;;;;;;;0.30;0.30;;;3.60;99.90;;;;;;5043701;28;20508;-82
2023/04/26 02:32:07;;;;;;;0.30;0.30;;;3.60;99.90;;;;;;5030414;28;20270;-82
2023/04/26 02:34:33;;;;;;;0.30;0.30;;;3.60;99.90;;;;;;5045278;28;20214;-82
2023/04/26 02:36:58;;;;;;;0.33;0.33;;;3.70;99.90;;;;;;5046194;28;20206;-82
2023/04/26 02:39:24;;;;;;;0.30;0.30;;;3.60;99.90;;;;;;5040755;28;20223;-82
2023/04/26 02:41:50;;;;;;;0.40;0.40;;;3.60;99.90;;;;;;5031826;28;20223;-82
2023/04/26 02:44:15;;;;;;;0.30;0.30;;;3.60;99.90;;;;;;5035573;28;20430;-82
2023/04/26 02:46:41;;;;;;;0.37;0.37;;;3.50;99.90;;;;;;5035380;28;20302;-82
2023/04/26 02:49:07;;;;;;;0.40;0.40;;;3.50;99.90;;;;;;5042953;28;20185;-82
2023/04/26 02:51:32;;;;;;;0.30;0.30;;;3.50;99.90;;;;;;5041075;28;20199;-82
2023/04/26 02:53:58;;;;;;;0.37;0.37;;;3.50;99.90;;;;;;5042402;28;20780;-82
2023/04/26 02:56:24;;;;;;;0.20;0.20;;;3.40;99.90;;;;;;5044745;28;20276;-82
2023/04/26 02:58:50;;;;;;;0.30;0.30;;;3.50;99.90;;;;;;5050013;28;20551;-82
2023/04/26 03:01:16;;;;;;;0.40;0.40;;;3.40;99.90;;;;;;5042718;28;20236;-82
2023/04/26 03:03:42;;;;;;;0.30;0.30;;;3.50;99.90;;;;;;5052416;28;20207;-82
2023/04/26 03:06:08;;;;;;;0.47;0.47;;;3.40;99.90;;;;;;5047131;28;20481;-82
2023/04/26 03:08:35;;;;;;;0.40;0.40;;;3.40;99.90;;;;;;5049796;28;20263;-82
2023/04/26 03:11:01;;;;;;;0.30;0.30;;;3.50;99.90;;;;;;5033994;28;20253;-82
2023/04/26 03:13:26;;;;;;;0.30;0.30;;;3.40;99.90;;;;;;5051578;28;20928;-82
2023/04/26 03:15:52;;;;;;;0.37;0.37;;;3.50;99.90;;;;;;5041337;28;20692;-82
2023/04/26 03:18:18;;;;;;;0.37;0.37;;;3.40;99.90;;;;;;5043015;28;20673;-82
2023/04/26 03:20:44;;;;;;;0.30;0.30;;;3.40;99.90;;;;;;5046479;28;20284;-82
2023/04/26 03:23:10;;;;;;;0.40;0.40;;;3.40;99.90;;;;;;5049278;28;20198;-82
2023/04/26 03:25:36;;;;;;;0.30;0.30;;;3.40;99.90;;;;;;5036593;28;20454;-82
2023/04/26 03:28:01;;;;;;;0.40;0.40;;;3.40;99.90;;;;;;5047643;28;20269;-82
2023/04/26 03:30:27;;;;;;;0.40;0.40;;;3.40;99.90;;;;;;5044055;28;20561;-82
2023/04/26 03:32:53;;;;;;;0.30;0.30;;;3.50;99.90;;;;;;5036484;28;20192;-83
2023/04/26 03:35:19;;;;;;;0.30;0.30;;;3.30;99.90;;;;;;5044556;28;20210;-82
2023/04/26 03:37:44;;;;;;;0.30;0.30;;;3.30;99.90;;;;;;5039133;28;20519;-82
2023/04/26 03:40:10;;;;;;;0.30;0.30;;;3.30;99.90;;;;;;5031121;28;20272;-82
2023/04/26 03:42:36;;;;;;;0.30;0.30;;;3.40;99.90;;;;;;5033796;28;20307;-82
2023/04/26 03:45:03;;;;;;;0.30;0.30;;;3.40;99.90;;;;;;5042585;28;20540;-83
2023/04/26 03:47:31;;;;;;;0.30;0.30;;;3.30;99.90;;;;;;5037534;28;20644;-83
2023/04/26 03:49:57;;;;;;;0.40;0.40;;;3.30;99.90;;;;;;5037808;28;21307;-82
2023/04/26 03:52:23;;;;;;;0.30;0.30;;;3.30;99.90;;;;;;5048197;28;20452;-82
2023/04/26 03:54:48;;;;;;;0.30;0.30;;;3.40;99.90;;;;;;5046950;28;20490;-82
2023/04/26 03:57:14;;;;;;;0.30;0.30;;;3.40;99.90;;;;;;5044208;28;20175;-82
2023/04/26 03:59:39;;;;;;;0.30;0.30;;;3.50;99.90;;;;;;5039702;28;20187;-82
2023/04/26 04:02:06;;;;;;;0.30;0.30;;;3.50;99.90;;;;;;5048750;28;20182;-83
2023/04/26 04:04:32;;;;;;;0.30;0.30;;;3.60;99.90;;;;;;5041481;28;20613;-83
2023/04/26 04:06:58;;;;;;;0.30;0.30;;;3.60;99.90;;;;;;5036453;28;20472;-82
2023/04/26 04:09:24;;;;;;;0.40;0.40;;;3.60;99.90;;;;;;5043005;28;20184;-83
2023/04/26 04:11:49;;;;;;;0.30;0.30;;;3.70;99.90;;;;;;5041466;28;20495;-82
2023/04/26 04:14:15;;;;;;;0.30;0.30;;;3.70;99.90;;;;;;5043000;28;20183;-82
2023/04/26 04:16:40;;;;;;;0.20;0.20;;;3.70;99.90;;;;;;5042948;28;20688;-82
2023/04/26 04:19:06;;;;;;;0.33;0.33;;;3.80;99.90;;;;;;5039824;28;20222;-82
2023/04/26 04:21:31;;;;;;;0.40;0.40;;;3.70;99.90;;;;;;5035991;28;20184;-82
2023/04/26 04:23:57;;;;;;;0.20;0.20;;;3.70;99.90;;;;;;5042000;28;20192;-81
2023/04/26 04:26:22;;;;;;;0.30;0.30;;;3.70;99.90;;;;;;5032489;28;20197;-82
2023/04/26 04:28:48;;;;;;;0.30;0.30;;;3.70;99.90;;;;;;5047784;28;20187;-81
2023/04/26 04:31:14;;;;;;;0.30;0.30;;;3.80;99.90;;;;;;5036368;28;20190;-82
2023/04/26 04:33:39;;;;;;;0.23;0.23;;;3.70;99.90;;;;;;5040363;28;20175;-82
2023/04/26 04:36:06;;;;;;;0.30;0.30;;;3.70;99.90;;;;;;5031486;28;20223;-81
2023/04/26 04:38:31;;;;;;;0.30;0.30;;;3.70;99.90;;;;;;5033767;28;20906;-83
2023/04/26 04:40:57;;;;;;;0.20;0.20;;;3.70;99.90;;;;;;5039968;28;20946;-82
2023/04/26 04:43:23;;;;;;;0.40;0.40;;;3.70;99.90;;;;;;5035383;28;20868;-82
2023/04/26 04:45:48;;;;;;;0.30;0.30;;;3.80;99.90;;;;;;5036067;28;20198;-82
2023/04/26 04:48:14;;;;;;;0.30;0.30;;;3.70;99.90;;;;;;5033624;28;20286;-82
2023/04/26 04:50:43;;;;;;;0.37;0.37;;;3.70;99.90;;;;;;5037827;28;20183;-82
2023/04/26 04:53:09;;;;;;;0.30;0.30;;;3.80;99.90;;;;;;5041748;28;20464;-82
2023/04/26 04:55:35;;;;;;;0.30;0.30;;;3.80;99.90;;;;;;5039801;28;20996;-82
2023/04/26 04:58:02;;;;;;;0.23;0.23;;;3.80;99.90;;;;;;5042544;28;20187;-83
2023/04/26 05:00:28;;;;;;;0.30;0.30;;;3.80;99.90;;;;;;5038693;28;20911;-82
2023/04/26 05:02:55;;;;;;;0.30;0.30;;;3.90;99.90;;;;;;5041509;28;20487;-82
2023/04/26 05:05:20;;;;;;;0.30;0.30;;;3.80;99.90;;;;;;5037043;28;20536;-82
2023/04/26 05:07:46;;;;;;;0.30;0.30;;;3.90;99.90;;;;;;5047519;28;20591;-82
2023/04/26 05:10:12;;;;;;;0.30;0.30;;;4.00;99.90;;;;;;5041086;28;20221;-83
2023/04/26 05:12:37;;;;;;;0.37;0.37;;;4.00;99.90;;;;;;5033513;28;20396;-82
2023/04/26 05:15:03;;;;;;;0.30;0.30;;;4.10;99.90;;;;;;5030462;28;20219;-82
2023/04/26 05:17:31;;;;;;;0.30;0.30;;;4.10;99.90;;;;;;5030977;28;20180;-82
2023/04/26 05:19:57;;;;;;;0.30;0.30;;;4.10;99.90;;;;;;5039821;28;20981;-83
2023/04/26 05:22:22;;;;;;;0.33;0.33;;;4.20;99.90;;;;;;5041793;28;20453;-83
2023/04/26 05:24:48;;;;;;;0.20;0.20;;;4.20;99.90;;;;;;5034374;28;20249;-83
2023/04/26 05:27:14;;;;;;;0.30;0.30;;;4.20;99.90;;;;;;5034671;28;20650;-82
2023/04/26 05:29:40;;;;;;;0.30;0.30;;;4.40;99.90;;;;;;5038925;28;20183;-82
2023/04/26 05:32:06;;;;;;;0.23;0.23;;;4.40;99.90;;;;;;5044961;28;20332;-83
2023/04/26 05:34:32;;;;;;;0.30;0.30;;;4.40;99.90;;;;;;5032029;28;20543;-82
2023/04/26 05:36:58;;;;;;;0.30;0.30;;;4.50;99.90;;;;;;5031733;28;20195;-83
2023/04/26 05:39:23;;;;;;;0.30;0.30;;;4.60;99.90;;;;;;5054881;28;20979;-83
2023/04/26 05:41:49;;;;;;;0.30;0.30;;;4.70;99.90;;;;;;5032791;28;20227;-84
2023/04/26 05:44:15;;;;;;;0.20;0.20;;;4.70;99.90;;;;;;5037616;28;20186;-85
2023/04/26 05:46:41;;;;;;;0.27;0.27;;;4.70;99.90;;;;;;5039193;28;20905;-83
2023/04/26 05:49:06;;;;;;;0.30;0.30;;;4.90;99.90;;;;;;5045563;28;20175;-83
2023/04/26 05:51:32;;;;;;;0.20;0.20;;;5.00;99.90;;;;;;5036770;28;20179;-84
2023/04/26 05:53:57;;;;;;;0.30;0.30;;;5.10;99.90;;;;;;5034984;28;20187;-84
2023/04/26 05:56:24;;;;;;;0.20;0.20;;;5.20;99.90;;;;;;5036409;28;20227;-83
2023/04/26 05:58:50;;;;;;;0.20;0.20;;;5.20;99.90;;;;;;5040700;28;20179;-84
2023/04/26 06:01:15;;;;;;;0.20;0.20;;;5.20;99.90;;;;;;5033190;28;21038;-84
2023/04/26 06:03:42;;;;;;;0.23;0.23;;;5.30;99.90;;;;;;5030544;28;20184;-83
2023/04/26 06:06:08;;;;;;;0.20;0.20;;;5.40;99.90;;;;;;5038775;28;20203;-84
2023/04/26 06:08:35;;;;;;;0.23;0.23;;;5.40;99.90;;;;;;5031181;28;20446;-83
2023/04/26 06:11:00;;;;;;;0.20;0.20;;;5.50;99.90;;;;;;5031897;28;20663;-83
2023/04/26 06:13:26;;;;;;;0.20;0.20;;;5.60;99.90;;;;;;5030266;28;20532;-82
2023/04/26 06:15:52;;;;;;;0.30;0.30;;;5.60;99.90;;;;;;5036611;28;20255;-83
2023/04/26 06:18:18;;;;;;;0.30;0.30;;;5.80;99.90;;;;;;5050115;28;20198;-83
2023/04/26 06:20:45;;;;;;;0.20;0.20;;;5.90;99.90;;;;;;5034276;28;20453;-83
2023/04/26 06:23:11;;;;;;;0.23;0.23;;;5.90;99.90;;;;;;5033778;28;20184;-83
2023/04/26 06:25:37;;;;;;;0.20;0.20;;;6.00;99.90;;;;;;5030283;28;20443;-84
2023/04/26 06:28:02;;;;;;;0.30;0.30;;;6.10;99.90;;;;;;5035696;28;20194;-82
2023/04/26 06:30:28;;;;;;;0.30;0.30;;;6.20;99.90;;;;;;5041733;28;20443;-82
2023/04/26 06:32:53;;;;;;;0.30;0.30;;;6.40;99.90;;;;;;5046407;28;20205;-82
2023/04/26 06:35:19;;;;;;;0.20;0.20;;;6.40;99.90;;;;;;5039832;28;20726;-81
2023/04/26 06:37:45;;;;;;;0.30;0.30;;;6.40;99.90;;;;;;5041004;28;20243;-82
2023/04/26 06:40:12;;;;;;;0.30;0.30;;;6.50;99.90;;;;;;5040271;28;20329;-82
2023/04/26 06:42:38;;;;;;;0.10;0.10;;;6.60;99.90;;;;;;5027147;28;22242;-82
2023/04/26 06:45:04;;;;;;;0.10;0.10;;;6.90;99.90;;;;;;5040300;28;20461;-82
2023/04/26 06:47:29;;;;;;;0.20;0.20;;;6.80;99.90;;;;;;5039722;28;20325;-82
2023/04/26 06:49:55;;;;;;;0.20;0.20;;;6.70;99.90;;;;;;5042867;28;20968;-81
2023/04/26 06:52:21;;;;;;;0.20;0.20;;;6.80;99.90;;;;;;5035304;28;20183;-81
2023/04/26 06:54:46;;;;;;;0.20;0.20;;;6.90;99.90;;;;;;5047149;28;20211;-82
2023/04/26 06:57:12;;;;;;;0.20;0.20;;;6.90;99.90;;;;;;5045094;28;20908;-81
2023/04/26 06:59:37;;;;;;;0.20;0.20;;;7.20;99.90;;;;;;5041719;28;20658;-82
2023/04/26 07:02:03;;;;;;;0.20;0.20;;;7.10;99.90;;;;;;5033912;28;20537;-80
2023/04/26 07:04:28;;;;;;;0.20;0.20;;;7.20;99.90;;;;;;5043847;28;20179;-80
2023/04/26 07:06:54;;;;;;;0.20;0.20;;;7.30;99.90;;;;;;5038958;28;20199;-79
2023/04/26 07:09:21;;;;;;;0.10;0.10;;;7.40;99.90;;;;;;5042913;28;20642;-81
2023/04/26 07:11:47;;;;;;;0.20;0.20;;;7.40;99.90;;;;;;5039933;28;20584;-81
2023/04/26 07:14:12;;;;;;;0.20;0.20;;;7.80;99.90;;;;;;5032370;28;21013;-81
2023/04/26 07:16:38;;;;;;;0.20;0.20;;;7.80;99.90;;;;;;5037150;28;20424;-81
2023/04/26 07:19:03;;;;;;;0.20;0.20;;;7.60;99.90;;;;;;5044529;28;20183;-80
2023/04/26 07:21:29;;;;;;;0.10;0.10;;;7.60;99.90;;;;;;5050214;28;20183;-81
2023/04/26 07:23:55;;;;;;;0.17;0.17;;;7.80;99.90;;;;;;5045744;28;20245;-80
2023/04/26 07:26:28;;;;;;;0.20;0.20;;;8.20;99.90;;;;;;5038518;28;20182;-80
2023/04/26 07:28:54;;;;;;;0.20;0.20;;;8.40;99.90;;;;;;5049045;28;20479;-80
2023/04/26 07:31:20;;;;;;;0.10;0.10;;;8.60;99.90;;;;;;5037785;28;20446;-77
2023/04/26 07:33:45;;;;;;;0.10;0.10;;;8.80;99.90;;;;;;5038330;28;20738;-80
2023/04/26 07:36:11;;;;;;;0.20;0.20;;;8.50;99.90;;;;;;5042908;28;20212;-80
2023/04/26 07:38:36;;;;;;;0.20;0.20;;;8.40;99.90;;;;;;5045125;28;20535;-80
2023/04/26 07:41:03;;;;;;;0.20;0.20;;;8.60;99.90;;;;;;5049765;28;20190;-80
2023/04/26 07:43:30;;;;;;;0.10;0.10;;;8.80;99.90;;;;;;5042316;28;22178;-79
2023/04/26 07:46:01;;;;;;;0.10;0.10;;;9.00;99.90;;;;;;5040113;28;20797;-79
2023/04/26 07:48:27;;;;;;;0.10;0.10;;;9.00;99.90;;;;;;5044671;28;20437;-80
2023/04/26 07:50:54;;;;;;;0.10;0.10;;;8.80;99.90;;;;;;5052883;28;20441;-80
2023/04/26 07:53:20;;;;;;;0.10;0.10;;;8.50;99.90;;;;;;5039690;28;20207;-79
2023/04/26 07:55:45;;;;;;;0.17;0.17;;;8.00;99.90;;;;;;5042104;28;20505;-80
2023/04/26 07:58:13;;;;;;;0.17;0.17;;;7.50;99.90;;;;;;5036979;28;20167;-79
2023/04/26 08:00:39;;;;;;;0.20;0.20;;;8.00;99.90;;;;;;5048808;28;20225;-79
2023/04/26 08:03:05;;;;;;;0.10;0.10;;;8.70;99.90;;;;;;5041381;28;20442;-81
2023/04/26 08:05:30;;;;;;;0.10;0.10;;;8.90;99.90;;;;;;5046953;28;20436;-92
2023/04/26 08:07:56;;;;;;;0.10;0.10;;;9.10;99.90;;;;;;5036539;28;20218;-88
2023/04/26 08:10:21;;;;;;;0.10;0.10;;;9.20;99.90;;;;;;5042234;28;20187;-87
2023/04/26 08:12:47;;;;;;;0.20;0.20;;;8.70;99.90;;;;;;5049903;28;20196;-89
2023/04/26 08:15:13;;;;;;;0.10;0.10;;;8.60;99.90;;;;;;5043381;28;20222;-86
2023/04/26 08:17:38;;;;;;;0.17;0.17;;;8.30;99.90;;;;;;5035490;28;20252;-89
2023/04/26 08:20:04;;;;;;;0.10;0.10;;;8.20;99.90;;;;;;5048220;28;20325;-86
2023/04/26 08:22:30;;;;;;;0.20;0.20;;;7.90;99.90;;;;;;5050418;28;20722;-86
2023/04/26 08:24:56;;;;;;;0.20;0.20;;;7.80;99.90;;;;;;5048587;28;20524;-86
2023/04/26 08:27:22;;;;;;;0.20;0.20;;;8.40;99.90;;;;;;5039808;28;20233;-87
2023/04/26 08:29:47;;;;;;;0.20;0.20;;;9.00;99.90;;;;;;5041806;28;20270;-88
2023/04/26 08:32:13;;;;;;;0.10;0.10;;;9.40;99.90;;;;;;5030460;28;20438;-85
2023/04/26 08:34:38;;;;;;;0.10;0.10;;;9.40;99.90;;;;;;5053426;28;20195;-87
2023/04/26 08:37:06;;;;;;;0.20;0.20;;;9.90;99.90;;;;;;5034506;28;20203;-87
2023/04/26 08:39:32;;;;;;;0.10;0.10;;;10.10;99.90;;;;;;5031724;28;20220;-85
2023/04/26 08:42:07;;;;;;;0.10;0.10;;;10.00;99.90;;;;;;5047924;28;20499;-87
2023/04/26 08:44:34;;;;;;;0.10;0.10;;;10.50;99.90;;;;;;5060588;28;21046;-84
2023/04/26 08:47:08;;;;;;;0.10;0.10;;;10.90;99.90;;;;;;5047171;28;20453;-84
2023/04/26 08:49:43;;;;;;;0.10;0.10;;;10.90;99.90;;;;;;5040515;28;20453;-84
2023/04/26 08:52:10;;;;;;;0.10;0.10;;;11.00;99.90;;;;;;5050256;28;20448;-85
2023/04/26 08:54:37;;;;;;;0.10;0.10;;;10.90;99.90;;;;;;5050135;28;20421;-84
2023/04/26 08:57:03;;;;;;;0.10;0.10;;;10.70;99.90;;;;;;5042676;28;21076;-83
2023/04/26 08:59:30;;;;;;;0.10;0.10;;;11.20;99.90;;;;;;5047345;28;20516;-84
2023/04/26 09:01:57;;;;;;;0.00;0.00;;;11.70;99.90;;;;;;5051006;28;20441;-87
2023/04/26 09:04:23;;;;;;;0.10;0.10;;;10.70;99.90;;;;;;5050601;28;20409;-87
2023/04/26 09:06:51;;;;;;;0.10;0.10;;;10.70;99.90;;;;;;5048007;28;20465;-84
2023/04/26 09:09:19;;;;;;;0.10;0.10;;;10.70;99.90;;;;;;5050827;28;20944;-87
2023/04/26 09:11:51;;;;;;;0.10;0.10;;;10.70;99.90;;;;;;5036832;28;20440;-86
2023/04/26 09:14:17;;;;;;;0.10;0.10;;;10.50;99.90;;;;;;5036603;28;20472;-85
2023/04/26 09:16:42;;;;;;;0.10;0.10;;;10.90;99.90;;;;;;5044637;28;20623;-84
2023/04/26 09:19:08;;;;;;;0.10;0.10;;;10.80;99.90;;;;;;5037275;28;20561;-86
2023/04/26 09:21:44;;;;;;;0.10;0.10;;;10.80;99.90;;;;;;5047274;28;20194;-86
2023/04/26 09:24:10;;;;;;;0.10;0.10;;;10.80;99.90;;;;;;5048555;28;20682;-86
2023/04/26 09:26:35;;;;;;;0.10;0.10;;;10.60;99.90;;;;;;5043638;28;20432;-85
2023/04/26 09:29:12;;;;;;;0.10;0.10;;;11.20;99.90;;;;;;5038436;28;20445;-85
2023/04/26 09:31:40;;;;;;;0.10;0.10;;;11.10;99.90;;;;;;5030062;28;20309;-85
2023/04/26 09:34:06;;;;;;;0.07;0.07;;;11.80;99.90;;;;;;5033522;28;20450;-85
2023/04/26 09:36:32;;;;;;;0.07;0.07;;;11.70;99.90;;;;;;5038462;28;21003;-85
2023/04/26 09:38:57;;;;;;;0.10;0.10;;;11.30;99.90;;;;;;5035019;28;20442;-84
2023/04/26 09:41:23;;;;;;;0.10;0.10;;;11.60;99.90;;;;;;5037844;28;20253;-84
2023/04/26 09:43:51;;;;;;;0.03;0.03;;;12.60;99.90;;;;;;5033977;28;20190;-83
2023/04/26 09:46:23;;;;;;;0.10;0.10;;;12.30;99.90;;;;;;5043116;28;20241;-83
2023/04/26 09:49:01;;;;;;;0.10;0.10;;;11.40;99.90;;;;;;5047119;28;20448;-85
2023/04/26 09:51:27;;;;;;;0.10;0.10;;;10.40;99.90;;;;;;5033996;28;20455;-86
2023/04/26 09:53:53;;;;;;;0.07;0.07;;;9.80;99.90;;;;;;5035566;28;20536;-86
2023/04/26 09:56:20;;;;;;;0.10;0.10;;;9.40;99.90;;;;;;5040213;28;20615;-86
2023/04/26 09:58:46;;;;;;;0.10;0.10;;;8.90;99.90;;;;;;5043437;28;20180;-85
2023/04/26 10:01:13;;;;;;;0.10;0.10;;;8.60;99.90;;;;;;5031255;28;20518;-88
2023/04/26 10:03:40;;;;;;;0.10;0.10;;;8.80;99.90;;;;;;5031126;28;20199;-87
2023/04/26 10:06:06;;;;;;;0.10;0.10;;;9.40;99.90;;;;;;5038028;28;20447;-87
2023/04/26 10:08:32;;;;;;;0.10;0.10;;;9.50;99.90;;;;;;5038105;28;20501;-86
2023/04/26 10:10:59;;;;;;;0.10;0.10;;;10.10;99.90;;;;;;5055592;28;20565;-85
2023/04/26 10:13:24;;;;;;;0.10;0.10;;;10.80;99.90;;;;;;5028938;28;21020;-84
2023/04/26 10:15:52;;;;;;;0.10;0.10;;;10.90;99.90;;;;;;5031290;28;20568;-84
2023/04/26 10:18:18;;;;;;;0.10;0.10;;;10.90;99.90;;;;;;5028251;28;20249;-81
2023/04/26 10:20:47;;;;;;;0.10;0.10;;;11.10;99.90;;;;;;5036390;28;20451;-81
2023/04/26 10:23:24;;;;;;;0.10;0.10;;;11.00;99.90;;;;;;5036426;28;20183;-81
2023/04/26 10:25:50;;;;;;;0.10;0.10;;;11.70;99.90;;;;;;5036997;28;20504;-82
2023/04/26 10:28:17;;;;;;;0.10;0.10;;;12.50;99.90;;;;;;5041871;28;20999;-80
2023/04/26 10:31:00;;;;;;;0.10;0.10;;;11.30;99.90;;;;;;5034831;28;20441;-80
2023/04/26 10:33:26;;;;;;;0.10;0.10;;;10.90;99.90;;;;;;5030147;28;20452;-80
2023/04/26 10:36:04;;;;;;;0.10;0.10;;;10.70;99.90;;;;;;5033472;28;20491;-80
2023/04/26 10:38:30;;;;;;;0.10;0.10;;;12.00;99.90;;;;;;5034544;28;20444;-78
2023/04/26 10:41:30;;;;;;;0.10;0.10;;;12.20;99.90;;;;;;5045338;28;20453;-77
2023/04/26 10:43:56;;;;;;;0.03;0.03;;;13.10;99.90;;;;;;5046241;28;20445;-78
2023/04/26 10:46:41;;;;;;;0.00;0.00;;;12.80;99.90;;;;;;5035061;28;20864;-83
2023/04/26 10:49:18;;;;;;;0.00;0.00;;;12.70;99.90;;;;;;5042761;28;20437;-80
2023/04/26 10:52:10;;;;;;;0.00;0.00;;;12.30;99.90;;;;;;5037421;28;20445;-88
2023/04/26 10:54:58;;;;;;;0.00;0.00;;;12.90;99.90;;;;;;5055028;28;20525;-81
2023/04/26 10:57:49;;;;;;;0.00;0.00;;;13.90;99.90;;;;;;5037234;28;20453;-81
2023/04/26 11:00:16;;;;;;;0.00;0.00;;;14.90;99.90;;;;;;5034755;28;20928;-80
2023/04/26 11:03:01;;;;;;;0.00;0.00;;;15.20;99.90;;;;;;5041949;28;20471;-79
2023/04/26 11:05:39;;;;;;;0.00;0.00;;;15.10;99.90;;;;;;5052702;28;20435;-79
2023/04/26 11:08:16;;;;;;;0.00;0.00;;;14.70;99.90;;;;;;5044494;28;20435;-79
2023/04/26 11:10:48;;;;;;;0.00;0.00;;;14.50;99.90;;;;;;5037971;28;20468;-79
2023/04/26 11:13:14;;;;;;;0.00;0.00;;;14.10;99.90;;;;;;5040888;28;20561;-80
2023/04/26 11:15:40;;;;;;;0.00;0.00;;;12.80;99.90;;;;;;5035525;28;20493;-79
2023/04/26 11:18:05;;;;;;;0.00;0.00;;;12.20;99.90;;;;;;5048659;28;20527;-79
2023/04/26 11:20:32;;;;;;;0.03;0.03;;;11.00;99.90;;;;;;5035629;28;20549;-80
2023/04/26 11:22:58;;;;;;;0.10;0.10;;;10.30;99.90;;;;;;5044425;28;20639;-82
2023/04/26 11:25:26;;;;;;;0.03;0.03;;;9.20;99.90;;;;;;5047819;28;20448;-79
2023/04/26 11:27:56;;;;;;;0.10;0.10;;;9.10;99.90;;;;;;5046149;28;20536;-82
2023/04/26 11:30:21;;;;;;;0.10;0.10;;;9.20;99.90;;;;;;5044310;28;20477;-80
2023/04/26 11:32:47;;;;;;;0.10;0.10;;;9.60;99.90;;;;;;5040525;28;20873;-80
2023/04/26 11:35:14;;;;;;;0.10;0.10;;;10.50;99.90;;;;;;5042152;28;20221;-82
2023/04/26 11:37:40;;;;;;;0.00;0.00;;;11.60;99.90;;;;;;5032121;28;20180;-79
2023/04/26 11:40:09;;;;;;;0.00;0.00;;;13.10;99.90;;;;;;5035309;28;20452;-82
2023/04/26 11:42:34;;;;;;;0.00;0.00;;;13.10;99.90;;;;;;5051203;28;20211;-82
2023/04/26 11:45:00;;;;;;;0.00;0.00;;;12.20;99.90;;;;;;5039946;28;20961;-81
2023/04/26 11:47:29;;;;;;;0.00;0.00;;;12.60;99.90;;;;;;5037740;28;20187;-82
2023/04/26 11:49:55;;;;;;;0.00;0.00;;;12.80;99.90;;;;;;5038416;28;20221;-83
2023/04/26 11:52:20;;;;;;;0.00;0.00;;;12.90;99.90;;;;;;5054813;28;20500;-82
2023/04/26 11:54:46;;;;;;;0.00;0.00;;;13.60;99.90;;;;;;5045146;28;20215;-83
2023/04/26 11:57:14;;;;;;;0.00;0.00;;;14.10;99.90;;;;;;5043032;28;20259;-81
2023/04/26 11:59:40;;;;;;;0.00;0.00;;;13.90;99.90;;;;;;5037139;28;20201;-83
2023/04/26 12:02:06;;;;;;;0.00;0.00;;;13.30;99.90;;;;;;5039767;28;20461;-81
2023/04/26 12:04:32;;;;;;;0.00;0.00;;;12.70;99.90;;;;;;5047705;28;20285;-81
2023/04/26 12:06:58;;;;;;;0.00;0.00;;;13.50;99.90;;;;;;5040748;28;20549;-80
2023/04/26 12:09:26;;;;;;;0.00;0.00;;;14.70;99.90;;;;;;5048351;28;20578;-82
2023/04/26 12:11:59;;;;;;;0.00;0.00;;;15.50;99.90;;;;;;5039605;28;20274;-83
2023/04/26 12:14:36;;;;;;;0.00;0.00;;;15.50;99.90;;;;;;5040538;28;20449;-83
2023/04/26 12:17:06;;;;;;;0.00;0.00;;;14.40;99.90;;;;;;5034576;28;20754;-82
2023/04/26 12:19:39;;;;;;;0.00;0.00;;;13.30;99.90;;;;;;5034840;28;20475;-82
2023/04/26 12:22:05;;;;;;;0.00;0.00;;;13.60;99.90;;;;;;5039139;28;20436;-82
2023/04/26 12:24:33;;;;;;;0.00;0.00;;;13.20;99.90;;;;;;5038449;28;20540;-81
2023/04/26 12:26:59;;;;;;;0.00;0.00;;;14.70;99.90;;;;;;5040836;28;20535;-81
2023/04/26 12:29:27;;;;;;;0.00;0.00;;;15.00;97.70;;;;;;5034895;28;20495;-82
2023/04/26 12:31:53;;;;;;;0.00;0.00;;;13.90;99.90;;;;;;5031918;28;20453;-81
2023/04/26 12:34:18;;;;;;;0.00;0.00;;;13.50;99.90;;;;;;5042041;28;20454;-80
2023/04/26 12:36:44;;;;;;;0.00;0.00;;;13.00;99.90;;;;;;5047307;28;20230;-79
2023/04/26 12:39:13;;;;;;;0.00;0.00;;;12.70;99.90;;;;;;5036983;28;20175;-80
2023/04/26 12:41:39;;;;;;;0.00;0.00;;;11.50;99.90;;;;;;5046566;28;20230;-79
2023/04/26 12:44:06;;;;;;;0.10;0.10;;;11.30;99.90;;;;;;5046785;28;20502;-79
2023/04/26 12:46:32;;;;;;;0.07;0.07;;;11.10;99.90;;;;;;5041658;28;20908;-78
2023/04/26 12:48:57;;;;;;;0.10;0.10;;;11.00;99.90;;;;;;5033632;28;20437;-79
2023/04/26 12:51:23;;;;;;;0.07;0.07;;;11.00;99.90;;;;;;5049411;28;20186;-79